sensor_id;sensor_type;location;lat;lon;timestamp;pressure;altitude;pressure_sealevel;temperature;humidity
49461;BME280;35355;49.198;-0.368;2023-06-22T00:02:13;101245.00;;;21.29;63.46
49461;BME280;35355;49.198;-0.368;2023-06-22T00:04:39;101245.00;;;21.29;63.79
49461;BME280;35355;49.198;-0.368;2023-06-22T00:07:13;101246.81;;;21.25;63.68
49461;BME280;35355;49.198;-0.368;2023-06-22T00:09:40;101246.31;;;21.23;63.86
49461;BME280;35355;49.198;-0.368;2023-06-22T00:12:06;101247.78;;;21.20;64.19
49461;BME280;35355;49.198;-0.368;2023-06-22T00:14:32;101253.16;;;21.16;64.34
49461;BME280;35355;49.198;-0.368;2023-06-22T00:16:57;101244.97;;;21.11;64.27
49461;BME280;35355;49.198;-0.368;2023-06-22T00:19:24;101251.66;;;21.10;64.35
49461;BME280;35355;49.198;-0.368;2023-06-22T00:21:52;101248.69;;;21.07;64.55
49461;BME280;35355;49.198;-0.368;2023-06-22T00:24:26;101249.53;;;21.07;64.49
49461;BME280;35355;49.198;-0.368;2023-06-22T00:26:52;101245.44;;;21.05;64.44
49461;BME280;35355;49.198;-0.368;2023-06-22T00:29:17;101239.72;;;21.01;64.67
49461;BME280;35355;49.198;-0.368;2023-06-22T00:31:43;101232.03;;;20.98;64.95
49461;BME280;35355;49.198;-0.368;2023-06-22T00:34:09;101236.91;;;20.92;64.84
49461;BME280;35355;49.198;-0.368;2023-06-22T00:36:35;101230.50;;;20.92;65.11
49461;BME280;35355;49.198;-0.368;2023-06-22T00:39:01;101241.94;;;20.90;64.95
49461;BME280;35355;49.198;-0.368;2023-06-22T00:41:32;101237.34;;;20.85;64.92
49461;BME280;35355;49.198;-0.368;2023-06-22T00:43:57;101232.63;;;20.86;65.18
49461;BME280;35355;49.198;-0.368;2023-06-22T00:46:23;101234.09;;;20.83;65.17
49461;BME280;35355;49.198;-0.368;2023-06-22T00:48:50;101243.84;;;20.81;65.26
49461;BME280;35355;49.198;-0.368;2023-06-22T00:51:16;101241.41;;;20.79;65.41
49461;BME280;35355;49.198;-0.368;2023-06-22T00:53:42;101238.25;;;20.72;65.49
49461;BME280;35355;49.198;-0.368;2023-06-22T00:56:08;101243.16;;;20.75;65.76
49461;BME280;35355;49.198;-0.368;2023-06-22T00:58:42;101244.31;;;20.74;65.76
49461;BME280;35355;49.198;-0.368;2023-06-22T01:01:08;101241.53;;;20.74;65.83
49461;BME280;35355;49.198;-0.368;2023-06-22T01:03:33;101243.50;;;20.74;65.56
49461;BME280;35355;49.198;-0.368;2023-06-22T01:06:06;101242.00;;;20.67;65.41
49461;BME280;35355;49.198;-0.368;2023-06-22T01:08:44;101238.41;;;20.67;65.34
49461;BME280;35355;49.198;-0.368;2023-06-22T01:11:41;101231.94;;;20.58;65.12
49461;BME280;35355;49.198;-0.368;2023-06-22T01:14:37;101238.69;;;20.65;65.42
49461;BME280;35355;49.198;-0.368;2023-06-22T01:17:10;101227.25;;;20.58;66.00
49461;BME280;35355;49.198;-0.368;2023-06-22T01:22:08;101234.72;;;20.58;66.06
49461;BME280;35355;49.198;-0.368;2023-06-22T01:30:10;101228.50;;;20.52;66.03
49461;BME280;35355;49.198;-0.368;2023-06-22T01:32:37;101214.59;;;20.43;66.27
49461;BME280;35355;49.198;-0.368;2023-06-22T01:35:05;101224.41;;;20.49;66.31
49461;BME280;35355;49.198;-0.368;2023-06-22T01:37:37;101217.84;;;20.45;66.21
49461;BME280;35355;49.198;-0.368;2023-06-22T01:40:14;101208.69;;;20.36;66.18
49461;BME280;35355;49.198;-0.368;2023-06-22T01:42:45;101212.56;;;20.35;66.57
49461;BME280;35355;49.198;-0.368;2023-06-22T01:45:12;101218.81;;;20.41;66.52
49461;BME280;35355;49.198;-0.368;2023-06-22T01:47:39;101219.63;;;20.41;66.51
49461;BME280;35355;49.198;-0.368;2023-06-22T01:50:05;101227.13;;;20.41;66.63
49461;BME280;35355;49.198;-0.368;2023-06-22T01:52:31;101207.19;;;20.30;66.66
49461;BME280;35355;49.198;-0.368;2023-06-22T01:54:59;101223.03;;;20.38;66.87
49461;BME280;35355;49.198;-0.368;2023-06-22T01:57:25;101223.66;;;20.35;66.64
49461;BME280;35355;49.198;-0.368;2023-06-22T02:02:19;101214.34;;;20.31;66.70
49461;BME280;35355;49.198;-0.368;2023-06-22T02:05:06;101200.44;;;20.22;66.49
49461;BME280;35355;49.198;-0.368;2023-06-22T02:07:36;101205.22;;;20.30;66.61
49461;BME280;35355;49.198;-0.368;2023-06-22T02:10:06;101207.19;;;20.30;66.73
49461;BME280;35355;49.198;-0.368;2023-06-22T02:12:33;101202.13;;;20.32;66.91
49461;BME280;35355;49.198;-0.368;2023-06-22T02:15:00;101198.03;;;20.29;66.93
49461;BME280;35355;49.198;-0.368;2023-06-22T02:17:26;101194.38;;;20.20;67.08
49461;BME280;35355;49.198;-0.368;2023-06-22T02:19:52;101179.84;;;20.14;67.06
49461;BME280;35355;49.198;-0.368;2023-06-22T02:22:17;101182.97;;;20.22;67.26
49461;BME280;35355;49.198;-0.368;2023-06-22T02:24:48;101179.84;;;20.14;67.28
49461;BME280;35355;49.198;-0.368;2023-06-22T02:27:16;101167.75;;;20.10;67.64
49461;BME280;35355;49.198;-0.368;2023-06-22T02:29:41;101181.66;;;20.19;67.68
49461;BME280;35355;49.198;-0.368;2023-06-22T02:32:07;101177.25;;;20.18;67.77
49461;BME280;35355;49.198;-0.368;2023-06-22T02:34:35;101153.41;;;20.08;67.58
49461;BME280;35355;49.198;-0.368;2023-06-22T02:37:05;101129.19;;;20.00;67.53
49461;BME280;35355;49.198;-0.368;2023-06-22T02:39:33;101154.25;;;20.18;67.76
49461;BME280;35355;49.198;-0.368;2023-06-22T02:41:59;101160.94;;;20.16;67.85
49461;BME280;35355;49.198;-0.368;2023-06-22T02:44:24;101148.97;;;20.07;67.94
49461;BME280;35355;49.198;-0.368;2023-06-22T02:46:50;101165.50;;;20.12;68.03
49461;BME280;35355;49.198;-0.368;2023-06-22T02:49:16;101172.84;;;20.17;67.99
49461;BME280;35355;49.198;-0.368;2023-06-22T02:51:46;101181.47;;;20.15;67.93
49461;BME280;35355;49.198;-0.368;2023-06-22T02:54:16;101181.47;;;20.15;67.96
49461;BME280;35355;49.198;-0.368;2023-06-22T02:56:42;101186.38;;;20.19;67.96
49461;BME280;35355;49.198;-0.368;2023-06-22T02:59:12;101177.56;;;20.16;67.84
49461;BME280;35355;49.198;-0.368;2023-06-22T03:01:38;101167.09;;;20.13;67.92
49461;BME280;35355;49.198;-0.368;2023-06-22T03:04:06;101181.47;;;20.15;67.83
49461;BME280;35355;49.198;-0.368;2023-06-22T03:06:33;101185.69;;;20.13;67.98
49461;BME280;35355;49.198;-0.368;2023-06-22T03:09:06;101183.72;;;20.13;67.76
49461;BME280;35355;49.198;-0.368;2023-06-22T03:11:49;101183.56;;;20.10;67.72
49461;BME280;35355;49.198;-0.368;2023-06-22T03:14:14;101194.97;;;20.08;67.88
49461;BME280;35355;49.198;-0.368;2023-06-22T03:16:40;101180.09;;;20.04;67.70
49461;BME280;35355;49.198;-0.368;2023-06-22T03:19:06;101195.78;;;20.09;67.91
49461;BME280;35355;49.198;-0.368;2023-06-22T03:21:31;101191.97;;;20.05;67.97
49461;BME280;35355;49.198;-0.368;2023-06-22T03:23:59;101180.97;;;19.91;67.61
49461;BME280;35355;49.198;-0.368;2023-06-22T03:26:24;101203.91;;;20.05;67.61
49461;BME280;35355;49.198;-0.368;2023-06-22T03:28:52;101193.31;;;20.07;67.61
49461;BME280;35355;49.198;-0.368;2023-06-22T03:31:17;101199.97;;;20.06;67.40
49461;BME280;35355;49.198;-0.368;2023-06-22T03:33:47;101194.66;;;20.10;67.48
49461;BME280;35355;49.198;-0.368;2023-06-22T03:36:13;101186.75;;;20.03;67.17
49461;BME280;35355;49.198;-0.368;2023-06-22T03:38:39;101196.59;;;20.09;67.48
49461;BME280;35355;49.198;-0.368;2023-06-22T03:41:07;101168.13;;;19.95;66.95
49461;BME280;35355;49.198;-0.368;2023-06-22T03:43:32;101182.53;;;20.06;67.10
49461;BME280;35355;49.198;-0.368;2023-06-22T03:45:58;101185.00;;;20.07;66.93
49461;BME280;35355;49.198;-0.368;2023-06-22T03:48:23;101186.00;;;20.11;66.77
49461;BME280;35355;49.198;-0.368;2023-06-22T03:50:49;101180.78;;;20.10;66.72
49461;BME280;35355;49.198;-0.368;2023-06-22T03:53:14;101182.44;;;20.11;66.62
49461;BME280;35355;49.198;-0.368;2023-06-22T03:55:50;101173.44;;;20.05;66.28
49461;BME280;35355;49.198;-0.368;2023-06-22T03:58:16;101180.59;;;20.06;66.41
49461;BME280;35355;49.198;-0.368;2023-06-22T04:00:42;101176.84;;;20.02;66.32
49461;BME280;35355;49.198;-0.368;2023-06-22T04:03:07;101177.47;;;19.99;66.33
49461;BME280;35355;49.198;-0.368;2023-06-22T04:05:33;101175.00;;;19.97;66.40
49461;BME280;35355;49.198;-0.368;2023-06-22T04:07:59;101178.59;;;19.98;66.24
49461;BME280;35355;49.198;-0.368;2023-06-22T04:10:24;101174.63;;;19.90;66.33
49461;BME280;35355;49.198;-0.368;2023-06-22T04:12:52;101175.13;;;19.92;66.27
49461;BME280;35355;49.198;-0.368;2023-06-22T04:15:18;101169.41;;;19.89;66.21
49461;BME280;35355;49.198;-0.368;2023-06-22T04:17:45;101169.50;;;19.84;66.08
49461;BME280;35355;49.198;-0.368;2023-06-22T04:20:11;101174.25;;;19.83;66.23
49461;BME280;35355;49.198;-0.368;2023-06-22T04:22:36;101166.56;;;19.80;66.22
49461;BME280;35355;49.198;-0.368;2023-06-22T04:25:02;101187.16;;;19.88;66.18
49461;BME280;35355;49.198;-0.368;2023-06-22T04:27:27;101186.66;;;19.86;66.22
49461;BME280;35355;49.198;-0.368;2023-06-22T04:29:53;101190.03;;;19.83;66.29
49461;BME280;35355;49.198;-0.368;2023-06-22T04:32:21;101199.50;;;19.82;66.07
49461;BME280;35355;49.198;-0.368;2023-06-22T04:34:49;101208.13;;;19.80;66.36
49461;BME280;35355;49.198;-0.368;2023-06-22T04:37:14;101208.44;;;19.78;66.10
49461;BME280;35355;49.198;-0.368;2023-06-22T04:39:42;101210.97;;;19.75;66.09
49461;BME280;35355;49.198;-0.368;2023-06-22T04:42:08;101212.38;;;19.72;66.34
49461;BME280;35355;49.198;-0.368;2023-06-22T04:44:33;101209.13;;;19.70;66.49
49461;BME280;35355;49.198;-0.368;2023-06-22T04:47:00;101211.41;;;19.68;66.44
49461;BME280;35355;49.198;-0.368;2023-06-22T04:49:27;101212.53;;;19.67;66.58
49461;BME280;35355;49.198;-0.368;2023-06-22T04:51:58;101216.41;;;19.66;66.52
49461;BME280;35355;49.198;-0.368;2023-06-22T04:54:24;101210.88;;;19.66;66.72
49461;BME280;35355;49.198;-0.368;2023-06-22T04:56:49;101211.41;;;19.68;66.73
49461;BME280;35355;49.198;-0.368;2023-06-22T04:59:26;101215.28;;;19.67;66.71
49461;BME280;35355;49.198;-0.368;2023-06-22T05:01:54;101210.25;;;19.69;66.57
49461;BME280;35355;49.198;-0.368;2023-06-22T05:04:19;101210.78;;;19.71;66.54
49461;BME280;35355;49.198;-0.368;2023-06-22T05:06:45;101219.41;;;19.70;66.47
49461;BME280;35355;49.198;-0.368;2023-06-22T05:09:10;101218.56;;;19.69;66.58
49461;BME280;35355;49.198;-0.368;2023-06-22T05:11:37;101224.63;;;19.71;66.60
49461;BME280;35355;49.198;-0.368;2023-06-22T05:14:03;101223.47;;;19.72;66.57
49461;BME280;35355;49.198;-0.368;2023-06-22T05:16:28;101233.44;;;19.73;66.56
49461;BME280;35355;49.198;-0.368;2023-06-22T05:18:54;101241.72;;;19.73;66.37
49461;BME280;35355;49.198;-0.368;2023-06-22T05:21:24;101236.19;;;19.73;66.35
49461;BME280;35355;49.198;-0.368;2023-06-22T05:23:51;101232.31;;;19.74;66.39
49461;BME280;35355;49.198;-0.368;2023-06-22T05:26:18;101228.41;;;19.75;66.30
49461;BME280;35355;49.198;-0.368;2023-06-22T05:28:44;101224.50;;;19.76;66.21
49461;BME280;35355;49.198;-0.368;2023-06-22T05:31:13;101210.16;;;19.74;66.13
49461;BME280;35355;49.198;-0.368;2023-06-22T05:33:39;101223.09;;;19.79;65.86
49461;BME280;35355;49.198;-0.368;2023-06-22T05:36:05;101215.59;;;19.79;65.86
49461;BME280;35355;49.198;-0.368;2023-06-22T05:38:30;101208.59;;;19.82;65.63
49461;BME280;35355;49.198;-0.368;2023-06-22T05:40:56;101213.53;;;19.85;65.53
49461;BME280;35355;49.198;-0.368;2023-06-22T05:43:21;101210.44;;;19.87;65.29
49461;BME280;35355;49.198;-0.368;2023-06-22T05:45:47;101210.97;;;19.89;64.87
49461;BME280;35355;49.198;-0.368;2023-06-22T05:48:12;101211.28;;;19.87;64.67
49461;BME280;35355;49.198;-0.368;2023-06-22T05:50:37;101213.72;;;19.89;64.64
49461;BME280;35355;49.198;-0.368;2023-06-22T05:53:03;101205.72;;;19.87;64.35
49461;BME280;35355;49.198;-0.368;2023-06-22T05:55:28;101209.31;;;19.88;64.35
49461;BME280;35355;49.198;-0.368;2023-06-22T05:57:54;101210.97;;;19.89;64.41
49461;BME280;35355;49.198;-0.368;2023-06-22T06:00:19;101209.31;;;19.88;64.41
49461;BME280;35355;49.198;-0.368;2023-06-22T06:02:45;101213.72;;;19.89;64.28
49461;BME280;35355;49.198;-0.368;2023-06-22T06:05:11;101212.56;;;19.90;64.31
49461;BME280;35355;49.198;-0.368;2023-06-22T06:07:39;101208.69;;;19.91;64.24
49461;BME280;35355;49.198;-0.368;2023-06-22T06:10:04;101207.56;;;19.92;64.20
49461;BME280;35355;49.198;-0.368;2023-06-22T06:12:31;101208.25;;;19.97;64.19
49461;BME280;35355;49.198;-0.368;2023-06-22T06:14:56;101196.72;;;20.04;64.40
49461;BME280;35355;49.198;-0.368;2023-06-22T06:17:22;101197.09;;;20.11;63.90
49461;BME280;35355;49.198;-0.368;2023-06-22T06:19:47;101202.00;;;20.14;63.61
49461;BME280;35355;49.198;-0.368;2023-06-22T06:22:12;101200.56;;;20.17;63.42
49461;BME280;35355;49.198;-0.368;2023-06-22T06:24:38;101199.72;;;20.16;63.40
49461;BME280;35355;49.198;-0.368;2023-06-22T06:27:03;101198.91;;;20.16;63.30
49461;BME280;35355;49.198;-0.368;2023-06-22T06:29:30;101202.00;;;20.14;63.23
49461;BME280;35355;49.198;-0.368;2023-06-22T06:31:55;101199.56;;;20.13;63.13
49461;BME280;35355;49.198;-0.368;2023-06-22T06:34:22;101208.56;;;20.19;63.44
49461;BME280;35355;49.198;-0.368;2023-06-22T06:36:47;101204.03;;;20.23;63.39
49461;BME280;35355;49.198;-0.368;2023-06-22T06:39:15;101208.41;;;20.24;63.34
49461;BME280;35355;49.198;-0.368;2023-06-22T06:41:43;101214.50;;;20.26;63.09
49461;BME280;35355;49.198;-0.368;2023-06-22T06:44:19;101214.81;;;20.24;63.13
49461;BME280;35355;49.198;-0.368;2023-06-22T06:46:44;101217.25;;;20.26;63.31
49461;BME280;35355;49.198;-0.368;2023-06-22T06:49:09;101222.16;;;20.29;63.51
49461;BME280;35355;49.198;-0.368;2023-06-22T06:51:35;101225.44;;;20.31;63.36
49461;BME280;35355;49.198;-0.368;2023-06-22T06:54:01;101218.75;;;20.32;63.60
49461;BME280;35355;49.198;-0.368;2023-06-22T06:56:28;101211.25;;;20.32;63.46
49461;BME280;35355;49.198;-0.368;2023-06-22T06:58:54;101227.56;;;20.34;63.67
49461;BME280;35355;49.198;-0.368;2023-06-22T07:01:20;101228.41;;;20.35;63.59
49461;BME280;35355;49.198;-0.368;2023-06-22T07:03:46;101228.09;;;20.36;63.69
49461;BME280;35355;49.198;-0.368;2023-06-22T07:06:11;101224.69;;;20.39;63.87
49461;BME280;35355;49.198;-0.368;2023-06-22T07:08:36;101220.16;;;20.43;63.99
49461;BME280;35355;49.198;-0.368;2023-06-22T07:11:02;101231.41;;;20.47;63.95
49461;BME280;35355;49.198;-0.368;2023-06-22T07:13:27;101231.78;;;20.54;64.00
49461;BME280;35355;49.198;-0.368;2023-06-22T07:15:56;101226.41;;;20.58;64.00
49461;BME280;35355;49.198;-0.368;2023-06-22T07:18:23;101222.66;;;20.62;63.88
49461;BME280;35355;49.198;-0.368;2023-06-22T07:20:52;101226.16;;;20.68;63.84
49461;BME280;35355;49.198;-0.368;2023-06-22T07:23:17;101233.22;;;20.74;63.81
49461;BME280;35355;49.198;-0.368;2023-06-22T07:25:48;101234.22;;;20.78;63.75
49461;BME280;35355;49.198;-0.368;2023-06-22T07:28:14;101236.03;;;20.83;63.19
49461;BME280;35355;49.198;-0.368;2023-06-22T07:30:40;101244.53;;;20.87;63.40
49461;BME280;35355;49.198;-0.368;2023-06-22T07:33:05;101244.72;;;20.90;63.23
49461;BME280;35355;49.198;-0.368;2023-06-22T07:35:36;101245.38;;;20.96;63.20
49461;BME280;35355;49.198;-0.368;2023-06-22T07:38:01;101244.63;;;21.04;63.38
49461;BME280;35355;49.198;-0.368;2023-06-22T07:40:27;101252.97;;;21.13;63.27
49461;BME280;35355;49.198;-0.368;2023-06-22T07:42:52;101246.13;;;21.19;63.27
49461;BME280;35355;49.198;-0.368;2023-06-22T07:45:18;101240.09;;;21.26;63.12
49461;BME280;35355;49.198;-0.368;2023-06-22T07:47:47;101258.44;;;21.35;62.96
49461;BME280;35355;49.198;-0.368;2023-06-22T07:50:12;101254.34;;;21.42;62.78
49461;BME280;35355;49.198;-0.368;2023-06-22T07:52:38;101251.63;;;21.50;62.78
49461;BME280;35355;49.198;-0.368;2023-06-22T07:55:04;101256.88;;;21.61;62.44
49461;BME280;35355;49.198;-0.368;2023-06-22T07:57:30;101260.00;;;21.68;61.98
49461;BME280;35355;49.198;-0.368;2023-06-22T08:00:07;101256.56;;;21.71;62.23
49461;BME280;35355;49.198;-0.368;2023-06-22T08:02:46;101265.56;;;21.77;61.62
49461;BME280;35355;49.198;-0.368;2023-06-22T08:05:13;101249.38;;;21.79;61.96
49461;BME280;35355;49.198;-0.368;2023-06-22T08:07:39;101254.94;;;21.87;61.96
49461;BME280;35355;49.198;-0.368;2023-06-22T08:10:06;101256.59;;;21.97;61.61
49461;BME280;35355;49.198;-0.368;2023-06-22T08:12:32;101251.69;;;22.03;61.75
49461;BME280;35355;49.198;-0.368;2023-06-22T08:14:57;101258.72;;;22.09;61.37
49461;BME280;35355;49.198;-0.368;2023-06-22T08:17:26;101259.03;;;22.16;61.11
49461;BME280;35355;49.198;-0.368;2023-06-22T08:19:51;101255.09;;;22.17;60.79
49461;BME280;35355;49.198;-0.368;2023-06-22T08:22:19;101265.41;;;22.17;60.59
49461;BME280;35355;49.198;-0.368;2023-06-22T08:24:47;101264.75;;;22.20;60.49
49461;BME280;35355;49.198;-0.368;2023-06-22T08:27:18;101266.06;;;22.22;60.44
49461;BME280;35355;49.198;-0.368;2023-06-22T08:29:54;101264.94;;;22.23;60.41
49461;BME280;35355;49.198;-0.368;2023-06-22T08:32:23;101274.59;;;22.35;60.49
49461;BME280;35355;49.198;-0.368;2023-06-22T08:34:49;101286.03;;;22.42;60.50
49461;BME280;35355;49.198;-0.368;2023-06-22T08:37:14;101265.91;;;22.45;59.77
49461;BME280;35355;49.198;-0.368;2023-06-22T08:39:40;101270.63;;;22.53;59.31
49461;BME280;35355;49.198;-0.368;2023-06-22T08:42:06;101269.97;;;22.56;58.91
49461;BME280;35355;49.198;-0.368;2023-06-22T08:44:41;101274.53;;;22.61;59.75
49461;BME280;35355;49.198;-0.368;2023-06-22T08:47:06;101291.22;;;22.70;58.76
49461;BME280;35355;49.198;-0.368;2023-06-22T08:49:32;101286.13;;;22.72;58.80
49461;BME280;35355;49.198;-0.368;2023-06-22T08:52:06;101281.06;;;22.74;58.80
49461;BME280;35355;49.198;-0.368;2023-06-22T08:54:37;101289.22;;;22.79;58.85
49461;BME280;35355;49.198;-0.368;2023-06-22T08:57:03;101291.00;;;22.84;58.54
49461;BME280;35355;49.198;-0.368;2023-06-22T08:59:29;101286.94;;;22.90;58.75
49461;BME280;35355;49.198;-0.368;2023-06-22T09:01:54;101297.38;;;23.02;58.74
49461;BME280;35355;49.198;-0.368;2023-06-22T09:04:20;101309.59;;;23.09;58.00
49461;BME280;35355;49.198;-0.368;2023-06-22T09:06:48;101294.25;;;23.12;58.17
49461;BME280;35355;49.198;-0.368;2023-06-22T09:09:16;101293.41;;;23.11;57.90
49461;BME280;35355;49.198;-0.368;2023-06-22T09:11:42;101299.09;;;23.24;57.63
49461;BME280;35355;49.198;-0.368;2023-06-22T09:14:08;101311.34;;;23.32;57.46
49461;BME280;35355;49.198;-0.368;2023-06-22T09:16:34;101314.59;;;23.34;57.50
49461;BME280;35355;49.198;-0.368;2023-06-22T09:19:00;101317.38;;;23.34;57.37
49461;BME280;35355;49.198;-0.368;2023-06-22T09:21:25;101314.44;;;23.39;57.18
49461;BME280;35355;49.198;-0.368;2023-06-22T09:23:57;101315.38;;;23.43;57.37
49461;BME280;35355;49.198;-0.368;2023-06-22T09:26:28;101310.97;;;23.42;56.77
49461;BME280;35355;49.198;-0.368;2023-06-22T09:28:53;101312.75;;;23.46;56.98
49461;BME280;35355;49.198;-0.368;2023-06-22T09:31:19;101321.75;;;23.52;57.40
49461;BME280;35355;49.198;-0.368;2023-06-22T09:33:51;101330.72;;;23.58;56.98
49461;BME280;35355;49.198;-0.368;2023-06-22T09:36:17;101334.78;;;23.60;56.32
49461;BME280;35355;49.198;-0.368;2023-06-22T09:38:42;101330.41;;;23.59;56.13
49461;BME280;35355;49.198;-0.368;2023-06-22T09:41:08;101333.19;;;23.59;55.54
49461;BME280;35355;49.198;-0.368;2023-06-22T09:43:36;101326.44;;;23.60;56.11
49461;BME280;35355;49.198;-0.368;2023-06-22T09:46:02;101331.31;;;23.63;56.40
49461;BME280;35355;49.198;-0.368;2023-06-22T09:48:30;101342.28;;;23.69;56.44
49461;BME280;35355;49.198;-0.368;2023-06-22T09:50:58;101336.06;;;23.72;56.25
49461;BME280;35355;49.198;-0.368;2023-06-22T09:53:30;101349.78;;;23.77;55.73
49461;BME280;35355;49.198;-0.368;2023-06-22T09:55:55;101337.81;;;23.76;55.68
49461;BME280;35355;49.198;-0.368;2023-06-22T09:58:22;101344.69;;;23.79;55.38
49461;BME280;35355;49.198;-0.368;2023-06-22T10:00:47;101347.50;;;23.79;55.29
49461;BME280;35355;49.198;-0.368;2023-06-22T10:03:13;101333.72;;;23.74;55.07
49461;BME280;35355;49.198;-0.368;2023-06-22T10:05:41;101336.06;;;23.72;55.41
49461;BME280;35355;49.198;-0.368;2023-06-22T10:08:07;101337.00;;;23.76;55.12
49461;BME280;35355;49.198;-0.368;2023-06-22T10:10:35;101339.47;;;23.77;55.05
49461;BME280;35355;49.198;-0.368;2023-06-22T10:13:07;101340.75;;;23.80;55.27
49461;BME280;35355;49.198;-0.368;2023-06-22T10:15:33;101327.97;;;23.79;55.06
49461;BME280;35355;49.198;-0.368;2023-06-22T10:17:58;101326.81;;;23.80;55.05
49461;BME280;35355;49.198;-0.368;2023-06-22T10:20:24;101334.00;;;23.81;55.22
49461;BME280;35355;49.198;-0.368;2023-06-22T10:22:51;101332.53;;;23.83;54.39
49461;BME280;35355;49.198;-0.368;2023-06-22T10:25:16;101336.66;;;23.86;55.13
49461;BME280;35355;49.198;-0.368;2023-06-22T10:27:41;101332.03;;;23.90;55.15
49461;BME280;35355;49.198;-0.368;2023-06-22T10:30:08;101335.28;;;23.92;54.58
49461;BME280;35355;49.198;-0.368;2023-06-22T10:32:37;101329.50;;;23.97;55.92
49461;BME280;35355;49.198;-0.368;2023-06-22T10:35:03;101338.16;;;24.05;54.66
49461;BME280;35355;49.198;-0.368;2023-06-22T10:37:29;101344.69;;;24.09;54.97
49461;BME280;35355;49.198;-0.368;2023-06-22T10:39:54;101346.31;;;24.10;54.86
49461;BME280;35355;49.198;-0.368;2023-06-22T10:42:20;101339.09;;;24.09;54.94
49461;BME280;35355;49.198;-0.368;2023-06-22T10:44:45;101342.38;;;24.11;54.19
49461;BME280;35355;49.198;-0.368;2023-06-22T10:47:10;101342.84;;;24.13;54.49
49461;BME280;35355;49.198;-0.368;2023-06-22T10:49:39;101332.66;;;24.17;54.43
49461;BME280;35355;49.198;-0.368;2023-06-22T10:52:11;101350.31;;;24.21;54.33
49461;BME280;35355;49.198;-0.368;2023-06-22T10:54:39;101342.78;;;24.22;53.89
49461;BME280;35355;49.198;-0.368;2023-06-22T10:57:04;101341.66;;;24.23;54.16
49461;BME280;35355;49.198;-0.368;2023-06-22T10:59:33;101351.63;;;24.24;54.59
49461;BME280;35355;49.198;-0.368;2023-06-22T11:02:04;101357.19;;;24.24;54.87
49461;BME280;35355;49.198;-0.368;2023-06-22T11:04:32;101356.06;;;24.25;54.42
49461;BME280;35355;49.198;-0.368;2023-06-22T11:06:57;101352.94;;;24.26;54.40
49461;BME280;35355;49.198;-0.368;2023-06-22T11:09:26;101357.81;;;24.29;54.56
49461;BME280;35355;49.198;-0.368;2023-06-22T11:11:51;101358.28;;;24.31;54.62
49461;BME280;35355;49.198;-0.368;2023-06-22T11:14:20;101364.81;;;24.35;54.67
49461;BME280;35355;49.198;-0.368;2023-06-22T11:16:45;101366.94;;;24.39;54.75
49461;BME280;35355;49.198;-0.368;2023-06-22T11:19:12;101367.88;;;24.43;54.71
49461;BME280;35355;49.198;-0.368;2023-06-22T11:21:40;101363.59;;;24.45;54.65
49461;BME280;35355;49.198;-0.368;2023-06-22T11:24:11;101361.97;;;24.44;55.09
49461;BME280;35355;49.198;-0.368;2023-06-22T11:26:39;101360.94;;;24.49;54.41
49461;BME280;35355;49.198;-0.368;2023-06-22T11:29:08;101362.47;;;24.46;54.72
49461;BME280;35355;49.198;-0.368;2023-06-22T11:31:36;101355.09;;;24.42;54.04
49461;BME280;35355;49.198;-0.368;2023-06-22T11:34:02;101348.09;;;24.35;53.88
49461;BME280;35355;49.198;-0.368;2023-06-22T11:36:28;101367.63;;;24.35;53.60
49461;BME280;35355;49.198;-0.368;2023-06-22T11:38:54;101367.84;;;24.30;53.88
49461;BME280;35355;49.198;-0.368;2023-06-22T11:41:19;101368.38;;;24.24;54.37
49461;BME280;35355;49.198;-0.368;2023-06-22T11:43:45;101369.38;;;24.19;54.35
49461;BME280;35355;49.198;-0.368;2023-06-22T11:46:10;101368.09;;;24.16;55.02
49461;BME280;35355;49.198;-0.368;2023-06-22T11:48:36;101372.97;;;24.20;55.46
49461;BME280;35355;49.198;-0.368;2023-06-22T11:51:01;101365.44;;;24.20;54.22
49461;BME280;35355;49.198;-0.368;2023-06-22T11:53:28;101369.84;;;24.21;54.32
49461;BME280;35355;49.198;-0.368;2023-06-22T11:55:53;101367.41;;;24.20;53.94
49461;BME280;35355;49.198;-0.368;2023-06-22T11:58:20;101373.31;;;24.18;54.33
49461;BME280;35355;49.198;-0.368;2023-06-22T12:00:45;101366.47;;;24.15;54.60
49461;BME280;35355;49.198;-0.368;2023-06-22T12:03:11;101361.00;;;24.19;54.64
49461;BME280;35355;49.198;-0.368;2023-06-22T12:05:37;101360.22;;;24.19;53.79
49461;BME280;35355;49.198;-0.368;2023-06-22T12:08:04;101361.16;;;24.23;53.75
49461;BME280;35355;49.198;-0.368;2023-06-22T12:10:29;101363.97;;;24.23;53.12
49461;BME280;35355;49.198;-0.368;2023-06-22T12:13:00;101365.09;;;24.22;52.86
49461;BME280;35355;49.198;-0.368;2023-06-22T12:15:29;101362.66;;;24.20;52.53
49461;BME280;35355;49.198;-0.368;2023-06-22T12:17:54;101378.56;;;24.20;52.73
49461;BME280;35355;49.198;-0.368;2023-06-22T12:20:20;101381.69;;;24.18;52.91
49461;BME280;35355;49.198;-0.368;2023-06-22T12:22:45;101374.97;;;24.19;53.45
49461;BME280;35355;49.198;-0.368;2023-06-22T12:25:12;101375.44;;;24.21;52.54
49461;BME280;35355;49.198;-0.368;2023-06-22T12:27:43;101369.84;;;24.21;52.69
49461;BME280;35355;49.198;-0.368;2023-06-22T12:30:09;101375.44;;;24.21;51.94
49461;BME280;35355;49.198;-0.368;2023-06-22T12:32:34;101374.50;;;24.17;52.22
49461;BME280;35355;49.198;-0.368;2023-06-22T12:35:05;101382.38;;;24.15;52.41
49461;BME280;35355;49.198;-0.368;2023-06-22T12:37:42;101378.91;;;24.18;51.96
49461;BME280;35355;49.198;-0.368;2023-06-22T12:40:10;101377.63;;;24.15;51.59
49461;BME280;35355;49.198;-0.368;2023-06-22T12:42:36;101373.88;;;24.11;51.36
49461;BME280;35355;49.198;-0.368;2023-06-22T12:45:02;101377.00;;;24.10;51.72
49461;BME280;35355;49.198;-0.368;2023-06-22T12:47:27;101371.44;;;24.10;52.33
49461;BME280;35355;49.198;-0.368;2023-06-22T12:49:53;101370.25;;;24.11;52.08
49461;BME280;35355;49.198;-0.368;2023-06-22T12:52:18;101368.63;;;24.10;52.46